Time;durP1;ratioP1;P1;durP2;ratioP2;P2;SDS_P1;SDS_P2;PMS_P1;PMS_P2;Temp;Humidity;BMP_temperature;BMP_pressure;BME280_temperature;BME280_humidity;BME280_pressure;Samples;Min_cycle;Max_cycle;Signal;HPM_P1;HPM_P2
2021/06/20 04:50:43;;;;;;;;;;;24.80;99.90;;;;;;5820286;23;20406;-70
2021/06/20 04:53:10;;;;;;;;;;;24.80;99.90;;;;;;4972753;28;19930;-70
2021/06/20 04:55:37;;;;;;;;;;;24.90;99.90;;;;;;4974034;28;20472;-69
2021/06/20 04:58:04;;;;;;;;;;;24.90;99.90;;;;;;4956813;28;20307;-70
2021/06/20 05:00:31;;;;;;;;;;;24.80;99.90;;;;;;4953600;28;20290;-70
2021/06/20 05:02:58;;;;;;;;;;;24.90;99.90;;;;;;4954347;29;19930;-70
2021/06/20 05:05:25;;;;;;;;;;;25.00;99.90;;;;;;4975341;23;20365;-76
2021/06/20 05:07:53;;;;;;;;;;;24.90;99.90;;;;;;4937256;29;20382;-76
2021/06/20 05:10:20;;;;;;;;;;;25.00;99.90;;;;;;4954537;28;19969;-76
2021/06/20 05:12:46;;;;;;;;;;;25.10;99.90;;;;;;4937179;29;20298;-76
2021/06/20 05:15:14;;;;;;;;;;;25.10;99.90;;;;;;4969442;28;19945;-76
2021/06/20 05:17:40;;;;;;;;;;;25.10;99.90;;;;;;4973604;28;20282;-76
2021/06/20 05:20:08;;;;;;;;;;;25.00;99.90;;;;;;4972939;28;19934;-76
2021/06/20 05:22:34;;;;;;;;;;;24.90;99.90;;;;;;4973176;28;20412;-76
2021/06/20 05:25:03;;;;;;;;;;;25.00;99.90;;;;;;4955888;28;20017;-76
2021/06/20 05:27:30;;;;;;;;;;;24.80;99.90;;;;;;4973195;28;19930;-76
2021/06/20 05:29:57;;;;;;;;;;;24.70;99.90;;;;;;4973206;28;19933;-76
2021/06/20 05:32:23;;;;;;;;;;;24.80;99.90;;;;;;4973060;28;19930;-76
2021/06/20 05:34:50;;;;;;;;;;;25.20;99.90;;;;;;4955506;28;20533;-76
2021/06/20 05:37:17;;;;;;;;;;;25.00;99.90;;;;;;4972903;28;19930;-76
2021/06/20 05:39:44;;;;;;;;;;;24.80;99.90;;;;;;4955997;28;19926;-76
2021/06/20 05:42:12;;;;;;;;;;;25.30;99.90;;;;;;4955113;28;19993;-76
2021/06/20 05:44:39;;;;;;;;;;;26.10;99.90;;;;;;4955099;28;19950;-76
2021/06/20 05:47:06;;;;;;;;;;;26.80;99.90;;;;;;4955106;28;19926;-76
2021/06/20 05:49:33;;;;;;;;;;;27.10;99.90;;;;;;4972780;28;19930;-76
2021/06/20 05:51:59;;;;;;;;;;;27.50;99.90;;;;;;4955054;28;19934;-77
2021/06/20 05:54:26;;;;;;;;;;;28.20;99.90;;;;;;4972597;28;19933;-77
2021/06/20 05:56:53;;;;;;;;;;;28.20;99.90;;;;;;4955040;28;20386;-77
2021/06/20 05:59:21;;;;;;;;;;;28.40;99.90;;;;;;4955392;28;19953;-76
2021/06/20 06:01:48;;;;;;;;;;;28.50;99.90;;;;;;4935868;29;19953;-77
2021/06/20 06:04:15;;;;;;;;;;;28.20;99.90;;;;;;4935790;29;19997;-76
2021/06/20 06:06:42;;;;;;;;;;;27.90;99.90;;;;;;4953158;28;20331;-75
2021/06/20 06:09:08;;;;;;;;;;;27.40;99.90;;;;;;4953073;28;20466;-76
2021/06/20 06:11:35;;;;;;;;;;;27.40;99.90;;;;;;4935623;29;19926;-76
2021/06/20 06:14:02;;;;;;;;;;;27.10;99.90;;;;;;4952728;28;20024;-77
2021/06/20 06:16:30;;;;;;;;;;;27.10;99.90;;;;;;4952098;28;19953;-76
2021/06/20 06:18:57;;;;;;;;;;;26.80;99.90;;;;;;4936030;29;20037;-76
2021/06/20 06:21:24;;;;;;;;;;;26.70;99.90;;;;;;4936116;29;19931;-76
2021/06/20 06:23:51;;;;;;;;;;;27.10;99.90;;;;;;4953299;28;20279;-76
2021/06/20 06:26:17;;;;;;;;;;;27.10;99.90;;;;;;4953657;28;20402;-77
2021/06/20 06:28:44;;;;;;;;;;;27.20;99.90;;;;;;4935680;29;19932;-76
2021/06/20 06:31:11;;;;;;;;;;;27.00;99.90;;;;;;4935829;29;19961;-76
2021/06/20 06:33:39;;;;;;;;;;;27.10;99.90;;;;;;4935854;28;20027;-76
2021/06/20 06:36:06;;;;;;;;;;;26.10;99.90;;;;;;4952693;28;20029;-76
2021/06/20 06:38:33;;;;;;;;;;;26.20;99.90;;;;;;4935621;29;19930;-76
2021/06/20 06:41:00;;;;;;;;;;;26.10;99.90;;;;;;4952233;28;19926;-77
2021/06/20 06:43:27;;;;;;;;;;;26.20;99.90;;;;;;4952456;28;20449;-76
2021/06/20 06:45:54;;;;;;;;;;;26.50;99.90;;;;;;4935401;29;19934;-76
2021/06/20 06:48:21;;;;;;;;;;;26.80;99.90;;;;;;4952747;28;19926;-76
2021/06/20 06:50:49;;;;;;;;;;;27.00;99.90;;;;;;4952698;28;19931;-76
2021/06/20 06:53:16;;;;;;;;;;;27.40;99.90;;;;;;4952219;29;19982;-74
2021/06/20 06:55:42;;;;;;;;;;;27.10;99.90;;;;;;4935257;29;20318;-76
2021/06/20 06:58:09;;;;;;;;;;;26.80;99.90;;;;;;4952106;29;19933;-75
2021/06/20 07:00:36;;;;;;;;;;;27.30;99.90;;;;;;4944810;28;19926;-77
2021/06/20 07:03:03;;;;;;;;;;;27.10;99.90;;;;;;4971691;28;20028;-74
2021/06/20 07:05:30;;;;;;;;;;;27.10;99.90;;;;;;4954346;28;19926;-76
2021/06/20 07:07:58;;;;;;;;;;;27.40;99.90;;;;;;4954149;28;19961;-75
2021/06/20 07:10:25;;;;;;;;;;;27.70;99.90;;;;;;4971746;28;19926;-75
2021/06/20 07:12:52;;;;;;;;;;;27.90;99.90;;;;;;4971494;28;19985;-75
2021/06/20 07:15:19;;;;;;;;;;;28.10;99.90;;;;;;4954352;28;19948;-75
2021/06/20 07:17:46;;;;;;;;;;;28.20;99.90;;;;;;4977363;28;19982;-75
2021/06/20 07:20:15;;;;;;;;;;;28.10;99.90;;;;;;4953799;28;20519;-75
2021/06/20 07:22:43;;;;;;;;;;;28.00;99.90;;;;;;4967001;28;19930;-75
2021/06/20 07:25:13;;;;;;;;;;;28.30;99.90;;;;;;4954702;28;20037;-75
2021/06/20 07:27:39;;;;;;;;;;;28.30;99.90;;;;;;4961716;28;19930;-76
2021/06/20 07:30:08;;;;;;;;;;;28.00;99.90;;;;;;4969684;28;19930;-75
2021/06/20 07:32:35;;;;;;;;;;;27.60;99.90;;;;;;4974567;28;20151;-76
2021/06/20 07:35:02;;;;;;;;;;;28.20;99.90;;;;;;4973936;28;20310;-76
2021/06/20 07:37:29;;;;;;;;;;;28.00;99.90;;;;;;4958403;28;20449;-77
2021/06/20 07:39:55;;;;;;;;;;;27.80;99.90;;;;;;4955732;28;20468;-76
2021/06/20 07:42:24;;;;;;;;;;;27.80;99.90;;;;;;4973444;28;19926;-77
2021/06/20 07:44:50;;;;;;;;;;;28.40;99.90;;;;;;4975963;28;19969;-76
2021/06/20 07:47:18;;;;;;;;;;;28.40;99.90;;;;;;4975016;28;19980;-75
2021/06/20 07:49:45;;;;;;;;;;;28.80;99.90;;;;;;4956167;28;19980;-75
2021/06/20 07:52:12;;;;;;;;;;;29.00;99.90;;;;;;4938189;29;19941;-74
2021/06/20 07:54:42;;;;;;;;;;;29.90;99.90;;;;;;4955607;29;20354;-76
2021/06/20 07:57:09;;;;;;;;;;;29.90;99.90;;;;;;4958222;28;19984;-75
2021/06/20 07:59:38;;;;;;;;;;;29.20;99.90;;;;;;4972502;28;20313;-76
2021/06/20 08:02:05;;;;;;;;;;;29.40;99.90;;;;;;4953416;28;19930;-75
2021/06/20 08:04:32;;;;;;;;;;;28.70;99.90;;;;;;4957162;28;20212;-75
2021/06/20 08:06:59;;;;;;;;;;;28.50;99.90;;;;;;4974327;28;19938;-75
2021/06/20 08:09:26;;;;;;;;;;;28.30;99.90;;;;;;4957375;28;19934;-75
2021/06/20 08:11:52;;;;;;;;;;;28.40;99.90;;;;;;4974312;28;19961;-75
2021/06/20 08:14:20;;;;;;;;;;;27.30;99.90;;;;;;4972456;28;19926;-75
2021/06/20 08:16:48;;;;;;;;;;;27.40;99.90;;;;;;4960280;28;19927;-75
2021/06/20 08:19:15;;;;;;;;;;;27.50;99.90;;;;;;4971031;28;19933;-75
2021/06/20 08:21:43;;;;;;;;;;;27.50;99.90;;;;;;4973435;28;20366;-76
2021/06/20 08:24:10;;;;;;;;;;;27.80;99.90;;;;;;4955391;28;19959;-75
2021/06/20 08:26:38;;;;;;;;;;;27.80;99.90;;;;;;4961902;28;19974;-75
2021/06/20 08:29:06;;;;;;;;;;;28.30;99.90;;;;;;4958858;28;19930;-75
2021/06/20 08:31:33;;;;;;;;;;;28.90;99.90;;;;;;4965438;28;19941;-75
2021/06/20 08:34:02;;;;;;;;;;;28.60;99.90;;;;;;4969204;28;20009;-74
2021/06/20 08:36:29;;;;;;;;;;;28.50;99.90;;;;;;4973092;28;20389;-73
2021/06/20 08:38:56;;;;;;;;;;;27.90;99.90;;;;;;4964417;28;19936;-74
2021/06/20 08:41:23;;;;;;;;;;;27.90;99.90;;;;;;4937763;28;20067;-73
2021/06/20 08:43:51;;;;;;;;;;;27.50;99.90;;;;;;4956151;28;20374;-74
2021/06/20 08:46:18;;;;;;;;;;;26.30;99.90;;;;;;4959368;28;20389;-75
2021/06/20 08:48:45;;;;;;;;;;;26.70;99.90;;;;;;4973128;28;19981;-75
2021/06/20 08:51:13;;;;;;;;;;;27.70;99.90;;;;;;4951567;28;19926;-75
2021/06/20 08:53:40;;;;;;;;;;;27.70;99.90;;;;;;4961669;28;19930;-74
2021/06/20 08:56:07;;;;;;;;;;;28.10;99.90;;;;;;4974214;28;19926;-74
2021/06/20 08:58:35;;;;;;;;;;;27.60;99.90;;;;;;4973938;28;19935;-74
2021/06/20 09:01:02;;;;;;;;;;;26.90;99.90;;;;;;4960631;28;19927;-74
2021/06/20 09:03:37;;;;;;;;;;;26.50;99.90;;;;;;4961003;28;19932;-74
2021/06/20 09:06:05;;;;;;;;;;;26.90;99.90;;;;;;4956588;28;19926;-75
2021/06/20 09:08:33;;;;;;;;;;;27.10;99.90;;;;;;4974164;28;19930;-74
2021/06/20 09:11:00;;;;;;;;;;;27.50;99.90;;;;;;4974303;28;20385;-75
2021/06/20 09:13:33;;;;;;;;;;;28.20;99.90;;;;;;4973513;28;19948;-75
2021/06/20 09:16:01;;;;;;;;;;;27.70;99.90;;;;;;4974257;28;19926;-75
2021/06/20 09:18:28;;;;;;;;;;;27.80;99.90;;;;;;4948967;28;19930;-75
2021/06/20 09:20:55;;;;;;;;;;;28.00;99.90;;;;;;4951056;28;19965;-76
2021/06/20 09:23:22;;;;;;;;;;;28.10;99.90;;;;;;4948489;28;20098;-76
2021/06/20 09:25:55;;;;;;;;;;;28.00;99.90;;;;;;4949857;28;20461;-76
2021/06/20 09:28:22;;;;;;;;;;;29.70;99.90;;;;;;4966458;28;20021;-76
2021/06/20 09:30:50;;;;;;;;;;;30.50;99.90;;;;;;4961782;28;19926;-77
2021/06/20 09:33:18;;;;;;;;;;;30.20;99.90;;;;;;4948711;28;19927;-74
2021/06/20 09:35:46;;;;;;;;;;;30.10;99.90;;;;;;4949635;28;19933;-74
2021/06/20 09:38:17;;;;;;;;;;;29.20;99.90;;;;;;4950787;28;19933;-75
2021/06/20 09:40:44;;;;;;;;;;;29.20;99.90;;;;;;4966602;28;20382;-74
2021/06/20 09:43:19;;;;;;;;;;;28.30;99.90;;;;;;4967686;28;19949;-74
2021/06/20 09:45:47;;;;;;;;;;;27.90;99.90;;;;;;4967373;28;19936;-74
2021/06/20 09:48:24;;;;;;;;;;;28.20;99.90;;;;;;4964323;28;19933;-75
2021/06/20 09:50:51;;;;;;;;;;;29.80;99.90;;;;;;4942089;28;19930;-74
2021/06/20 09:53:20;;;;;;;;;;;29.50;99.90;;;;;;4965515;28;19927;-76
2021/06/20 09:55:48;;;;;;;;;;;30.30;99.90;;;;;;4948220;28;22686;-74
2021/06/20 09:58:20;;;;;;;;;;;30.10;99.90;;;;;;4967320;28;19961;-75
2021/06/20 10:00:47;;;;;;;;;;;30.00;99.90;;;;;;4966898;28;19926;-75
2021/06/20 10:03:23;;;;;;;;;;;29.20;99.90;;;;;;4972258;28;19957;-75
2021/06/20 10:05:52;;;;;;;;;;;28.60;99.90;;;;;;4954912;28;20018;-75
2021/06/20 10:08:19;;;;;;;;;;;29.20;99.90;;;;;;4972212;28;19933;-75
2021/06/20 10:10:46;;;;;;;;;;;29.10;99.90;;;;;;4972356;28;20008;-74
2021/06/20 10:13:13;;;;;;;;;;;29.20;99.90;;;;;;4972535;28;19977;-76
2021/06/20 10:15:44;;;;;;;;;;;29.00;99.90;;;;;;4954633;28;19966;-76
2021/06/20 10:18:12;;;;;;;;;;;28.60;99.90;;;;;;4972097;28;19926;-76
2021/06/20 10:20:39;;;;;;;;;;;28.40;99.90;;;;;;4971802;28;20029;-77
2021/06/20 10:23:16;;;;;;;;;;;29.10;99.90;;;;;;4972298;28;20036;-75
2021/06/20 10:25:43;;;;;;;;;;;28.60;99.90;;;;;;4972121;28;20081;-75
2021/06/20 10:28:12;;;;;;;;;;;28.80;99.90;;;;;;4967770;28;20306;-75
2021/06/20 10:30:39;;;;;;;;;;;28.30;99.90;;;;;;4940508;29;19934;-76
2021/06/20 10:33:09;;;;;;;;;;;28.70;99.90;;;;;;4969518;28;20032;-75
2021/06/20 10:35:36;;;;;;;;;;;28.70;99.90;;;;;;4954263;28;20000;-77
2021/06/20 10:38:06;;;;;;;;;;;28.60;99.90;;;;;;4954295;28;19934;-76
2021/06/20 10:40:34;;;;;;;;;;;29.10;99.90;;;;;;4971756;28;20016;-74
2021/06/20 10:43:12;;;;;;;;;;;29.30;99.90;;;;;;4972108;28;19932;-73
2021/06/20 10:45:40;;;;;;;;;;;29.20;99.90;;;;;;4971535;28;19989;-73
2021/06/20 10:48:18;;;;;;;;;;;29.00;99.90;;;;;;4954261;28;19961;-74
2021/06/20 10:50:47;;;;;;;;;;;28.90;99.90;;;;;;4971436;28;20017;-73
2021/06/20 10:53:14;;;;;;;;;;;28.40;99.90;;;;;;4954134;28;20346;-74
2021/06/20 10:55:42;;;;;;;;;;;28.40;99.90;;;;;;4972164;28;20009;-74
2021/06/20 10:58:22;;;;;;;;;;;28.60;99.90;;;;;;4971720;28;19930;-74
2021/06/20 11:00:49;;;;;;;;;;;28.60;99.90;;;;;;4954558;28;19966;-74
2021/06/20 11:03:23;;;;;;;;;;;28.60;99.90;;;;;;4970156;28;19930;-75
2021/06/20 11:05:51;;;;;;;;;;;28.50;99.90;;;;;;4974566;23;20375;-69
2021/06/20 11:08:31;;;;;;;;;;;28.90;99.90;;;;;;4971075;28;19926;-70
2021/06/20 11:11:09;;;;;;;;;;;28.80;99.90;;;;;;4970960;28;19930;-68
2021/06/20 11:13:37;;;;;;;;;;;29.50;99.90;;;;;;4971048;28;20301;-68
2021/06/20 11:16:05;;;;;;;;;;;29.30;99.90;;;;;;4989742;28;19930;-68
2021/06/20 11:18:33;;;;;;;;;;;29.60;99.90;;;;;;4988694;28;19937;-67
2021/06/20 11:21:00;;;;;;;;;;;29.60;99.90;;;;;;4990424;28;19981;-68
2021/06/20 11:23:29;;;;;;;;;;;30.00;99.90;;;;;;4988325;28;19984;-69
2021/06/20 11:25:56;;;;;;;;;;;29.80;99.90;;;;;;4982393;28;20023;-69
2021/06/20 11:28:24;;;;;;;;;;;29.50;99.90;;;;;;4973814;28;20024;-68
2021/06/20 11:30:51;;;;;;;;;;;29.90;99.90;;;;;;4969945;28;19926;-68
2021/06/20 11:33:25;;;;;;;;;;;29.50;99.90;;;;;;4951487;28;19989;-68
2021/06/20 11:35:54;;;;;;;;;;;30.00;99.90;;;;;;4970484;28;19936;-69
2021/06/20 11:38:31;;;;;;;;;;;29.90;99.90;;;;;;4971271;28;19926;-69
2021/06/20 11:41:08;;;;;;;;;;;29.50;99.90;;;;;;4967143;28;19927;-69
2021/06/20 11:43:36;;;;;;;;;;;29.70;99.90;;;;;;4957873;28;19926;-68
2021/06/20 11:46:03;;;;;;;;;;;30.40;99.90;;;;;;4968342;28;19933;-70
2021/06/20 11:48:29;;;;;;;;;;;30.10;99.90;;;;;;4970642;28;19994;-68
2021/06/20 11:50:58;;;;;;;;;;;30.10;99.90;;;;;;4970197;28;19930;-68
2021/06/20 11:53:25;;;;;;;;;;;29.20;99.90;;;;;;4951544;28;19926;-69
2021/06/20 11:55:52;;;;;;;;;;;29.40;99.90;;;;;;4969743;28;19926;-70
2021/06/20 11:58:20;;;;;;;;;;;30.90;99.90;;;;;;4970408;28;19930;-69
2021/06/20 12:00:47;;;;;;;;;;;30.80;99.90;;;;;;4977274;28;19930;-68
2021/06/20 12:03:17;;;;;;;;;;;30.60;99.90;;;;;;4982916;28;19936;-67
2021/06/20 12:05:44;;;;;;;;;;;30.80;99.90;;;;;;4959733;28;20024;-70
2021/06/20 12:08:13;;;;;;;;;;;31.40;99.90;;;;;;4967048;28;19934;-68
2021/06/20 12:10:41;;;;;;;;;;;30.90;99.90;;;;;;4968804;28;20389;-69
2021/06/20 12:13:08;;;;;;;;;;;31.60;99.90;;;;;;4971407;28;20029;-69
2021/06/20 12:15:36;;;;;;;;;;;31.60;99.90;;;;;;4977415;28;19962;-68
2021/06/20 12:18:04;;;;;;;;;;;31.30;99.90;;;;;;4977946;28;19933;-68
2021/06/20 12:20:31;;;;;;;;;;;30.30;99.90;;;;;;4972476;28;20406;-68
2021/06/20 12:22:58;;;;;;;;;;;30.10;99.90;;;;;;4972943;28;19926;-68
2021/06/20 12:25:26;;;;;;;;;;;30.10;99.90;;;;;;4963476;28;20029;-69
2021/06/20 12:27:53;;;;;;;;;;;30.50;99.90;;;;;;4965977;28;19969;-68
2021/06/20 12:30:21;;;;;;;;;;;31.50;99.90;;;;;;4964972;28;21945;-68
2021/06/20 12:32:49;;;;;;;;;;;31.70;99.90;;;;;;4972032;28;20059;-68
2021/06/20 12:35:20;;;;;;;;;;;31.70;99.80;;;;;;4968521;28;19927;-68
2021/06/20 12:37:46;;;;;;;;;;;32.10;98.30;;;;;;4970777;28;20348;-69
2021/06/20 12:40:14;;;;;;;;;;;31.00;99.90;;;;;;4966478;28;19933;-68
2021/06/20 12:42:46;;;;;;;;;;;30.80;99.90;;;;;;4972844;28;19957;-68
2021/06/20 12:45:24;;;;;;;;;;;30.50;99.90;;;;;;4966303;28;20390;-68
2021/06/20 12:47:52;;;;;;;;;;;31.50;99.90;;;;;;4960826;28;19934;-68
2021/06/20 12:50:26;;;;;;;;;;;31.90;99.90;;;;;;4961270;28;19957;-69
2021/06/20 12:52:53;;;;;;;;;;;31.70;99.60;;;;;;4956608;28;19934;-69
2021/06/20 12:55:21;;;;;;;;;;;31.70;99.70;;;;;;4961543;28;19941;-69
2021/06/20 12:57:55;;;;;;;;;;;31.80;99.90;;;;;;4944077;28;20021;-69
2021/06/20 13:00:23;;;;;;;;;;;31.70;98.60;;;;;;4971547;28;19934;-69
2021/06/20 13:02:51;;;;;;;;;;;31.80;98.70;;;;;;4965885;28;19985;-70
2021/06/20 13:05:28;;;;;;;;;;;31.70;97.80;;;;;;4962584;28;19941;-69
2021/06/20 13:07:55;;;;;;;;;;;32.20;96.90;;;;;;4964726;28;20029;-69
2021/06/20 13:10:22;;;;;;;;;;;32.10;97.20;;;;;;4958219;28;19937;-67
2021/06/20 13:12:49;;;;;;;;;;;32.10;97.00;;;;;;4962226;28;20049;-66
2021/06/20 13:15:17;;;;;;;;;;;31.80;97.00;;;;;;4955389;28;19964;-70
2021/06/20 13:17:44;;;;;;;;;;;31.80;96.20;;;;;;4978433;28;19930;-68
2021/06/20 13:20:12;;;;;;;;;;;32.20;96.00;;;;;;4968074;28;19981;-67
2021/06/20 13:22:40;;;;;;;;;;;32.20;95.10;;;;;;4970492;28;19930;-66
2021/06/20 13:25:08;;;;;;;;;;;32.50;94.10;;;;;;4959468;28;20053;-67
2021/06/20 13:27:35;;;;;;;;;;;32.80;93.30;;;;;;4966299;28;19940;-69
2021/06/20 13:30:02;;;;;;;;;;;32.00;92.40;;;;;;4967840;28;20739;-67
2021/06/20 13:32:30;;;;;;;;;;;32.50;92.90;;;;;;4970619;28;19930;-68
2021/06/20 13:34:57;;;;;;;;;;;32.70;92.80;;;;;;4970308;28;20429;-68
2021/06/20 13:37:24;;;;;;;;;;;32.60;93.10;;;;;;4974870;28;20394;-69
2021/06/20 13:39:51;;;;;;;;;;;32.10;93.40;;;;;;4984861;28;20386;-69
2021/06/20 13:42:18;;;;;;;;;;;32.50;93.80;;;;;;4975956;28;20076;-69
2021/06/20 13:44:45;;;;;;;;;;;32.70;94.10;;;;;;4974797;28;19934;-68
2021/06/20 13:47:12;;;;;;;;;;;32.50;94.00;;;;;;4966699;28;20378;-69
2021/06/20 13:49:40;;;;;;;;;;;32.20;95.10;;;;;;4981683;28;19929;-67
2021/06/20 13:52:07;;;;;;;;;;;32.20;94.60;;;;;;4973819;28;19936;-68
2021/06/20 13:54:34;;;;;;;;;;;32.30;94.60;;;;;;4974374;28;19929;-68
2021/06/20 13:57:01;;;;;;;;;;;32.60;94.20;;;;;;4970295;28;19936;-68
2021/06/20 13:59:28;;;;;;;;;;;31.70;95.90;;;;;;4975345;28;19934;-67
2021/06/20 14:01:55;;;;;;;;;;;31.50;95.90;;;;;;4972129;28;20010;-68
2021/06/20 14:04:22;;;;;;;;;;;31.30;96.10;;;;;;4974822;28;19973;-67
2021/06/20 14:06:50;;;;;;;;;;;31.30;96.30;;;;;;4956274;28;19934;-67
2021/06/20 14:09:16;;;;;;;;;;;31.50;96.60;;;;;;4972307;28;20024;-67
2021/06/20 14:11:45;;;;;;;;;;;31.70;95.90;;;;;;4966018;28;19938;-68
2021/06/20 14:14:12;;;;;;;;;;;31.00;96.90;;;;;;4975835;28;19934;-69
2021/06/20 14:16:39;;;;;;;;;;;30.60;97.50;;;;;;4971614;28;19961;-68
2021/06/20 14:19:06;;;;;;;;;;;31.10;97.20;;;;;;4968060;28;19958;-69
2021/06/20 14:21:33;;;;;;;;;;;31.20;97.40;;;;;;4977422;28;20342;-68
2021/06/20 14:24:01;;;;;;;;;;;31.10;96.70;;;;;;4958043;28;19930;-68
2021/06/20 14:26:28;;;;;;;;;;;31.60;96.20;;;;;;4978755;28;19929;-68
2021/06/20 14:28:54;;;;;;;;;;;32.10;95.30;;;;;;4949324;28;21410;-68
2021/06/20 14:31:21;;;;;;;;;;;31.40;95.60;;;;;;4965948;28;19979;-68
2021/06/20 14:33:48;;;;;;;;;;;31.70;94.50;;;;;;4970339;28;20434;-68
2021/06/20 14:36:16;;;;;;;;;;;31.20;95.20;;;;;;4972150;28;19926;-67
2021/06/20 14:38:43;;;;;;;;;;;31.10;95.90;;;;;;4973919;28;20382;-68
2021/06/20 14:41:11;;;;;;;;;;;30.20;96.50;;;;;;4974431;28;19958;-68
2021/06/20 14:43:38;;;;;;;;;;;29.50;97.90;;;;;;4967891;28;20020;-67
2021/06/20 14:46:05;;;;;;;;;;;29.80;97.30;;;;;;4964120;28;19950;-69
2021/06/20 14:48:31;;;;;;;;;;;30.00;97.00;;;;;;4965845;28;20040;-70
2021/06/20 14:50:59;;;;;;;;;;;29.80;97.10;;;;;;4970852;28;19933;-69
2021/06/20 14:53:25;;;;;;;;;;;29.50;97.00;;;;;;4958981;28;20020;-67
2021/06/20 14:55:53;;;;;;;;;;;29.40;97.30;;;;;;4968018;28;19980;-68
2021/06/20 14:58:22;;;;;;;;;;;29.70;96.40;;;;;;4972201;28;19934;-68
2021/06/20 15:00:48;;;;;;;;;;;29.70;95.80;;;;;;4972907;28;19934;-68
2021/06/20 15:03:15;;;;;;;;;;;29.80;95.90;;;;;;4967944;28;20382;-68
2021/06/20 15:05:42;;;;;;;;;;;29.70;96.30;;;;;;4973905;28;20361;-68
2021/06/20 15:08:09;;;;;;;;;;;29.80;96.70;;;;;;4972375;28;19930;-69
2021/06/20 15:10:36;;;;;;;;;;;30.30;95.70;;;;;;4953447;28;20024;-67
2021/06/20 15:13:02;;;;;;;;;;;30.20;95.30;;;;;;4969585;28;19985;-68
2021/06/20 15:15:31;;;;;;;;;;;30.00;96.00;;;;;;4971607;28;20016;-68
2021/06/20 15:17:58;;;;;;;;;;;29.60;95.90;;;;;;4959548;28;19937;-69
2021/06/20 15:20:25;;;;;;;;;;;29.40;96.30;;;;;;4971170;28;20646;-68
2021/06/20 15:22:52;;;;;;;;;;;29.20;96.30;;;;;;4971701;28;20493;-68
2021/06/20 15:25:26;;;;;;;;;;;29.30;96.10;;;;;;4950188;28;20058;-68
2021/06/20 15:28:03;;;;;;;;;;;29.50;96.00;;;;;;4948952;28;20437;-69
2021/06/20 15:30:33;;;;;;;;;;;29.40;95.60;;;;;;4958762;28;19926;-68
2021/06/20 15:33:00;;;;;;;;;;;29.20;95.90;;;;;;4968968;28;19934;-69
2021/06/20 15:35:28;;;;;;;;;;;29.30;96.20;;;;;;4983741;28;20310;-70
2021/06/20 15:37:56;;;;;;;;;;;29.40;96.10;;;;;;4965944;28;19942;-68
2021/06/20 15:40:23;;;;;;;;;;;29.80;96.40;;;;;;4947941;28;19945;-68
2021/06/20 15:42:50;;;;;;;;;;;29.60;96.30;;;;;;4962308;28;19954;-69
2021/06/20 15:45:18;;;;;;;;;;;29.40;96.30;;;;;;4962945;28;20033;-69
2021/06/20 15:47:47;;;;;;;;;;;29.80;95.70;;;;;;4942559;29;19946;-67
2021/06/20 15:50:15;;;;;;;;;;;29.90;96.10;;;;;;4971330;28;19930;-68
2021/06/20 15:52:41;;;;;;;;;;;29.40;96.30;;;;;;4976388;28;19933;-68
2021/06/20 15:55:11;;;;;;;;;;;29.20;96.70;;;;;;4972082;28;20453;-69
2021/06/20 15:57:39;;;;;;;;;;;29.00;97.10;;;;;;4971733;28;19926;-69
2021/06/20 16:00:08;;;;;;;;;;;29.00;97.60;;;;;;4964866;28;19926;-69
2021/06/20 16:02:39;;;;;;;;;;;29.20;97.50;;;;;;4969869;28;19926;-69
2021/06/20 16:05:08;;;;;;;;;;;29.10;97.10;;;;;;4984049;28;19926;-69
2021/06/20 16:07:35;;;;;;;;;;;28.80;98.10;;;;;;4979253;28;19926;-68
2021/06/20 16:10:02;;;;;;;;;;;28.60;97.90;;;;;;4973933;28;19926;-68
2021/06/20 16:12:29;;;;;;;;;;;28.60;98.60;;;;;;4980505;28;19980;-69
2021/06/20 16:14:56;;;;;;;;;;;28.60;98.80;;;;;;4976591;28;19926;-69
2021/06/20 16:17:24;;;;;;;;;;;28.50;97.20;;;;;;4979607;28;19972;-69
2021/06/20 16:19:51;;;;;;;;;;;28.50;96.50;;;;;;4975498;28;20378;-69
2021/06/20 16:22:19;;;;;;;;;;;28.40;96.50;;;;;;4982063;28;19930;-69
2021/06/20 16:24:46;;;;;;;;;;;28.30;97.00;;;;;;4978492;28;20192;-68
2021/06/20 16:27:13;;;;;;;;;;;28.30;97.00;;;;;;4973537;28;20313;-69
2021/06/20 16:29:40;;;;;;;;;;;28.20;96.50;;;;;;4970916;28;20032;-70
2021/06/20 16:32:07;;;;;;;;;;;28.30;97.50;;;;;;4964298;28;19930;-70
2021/06/20 16:34:34;;;;;;;;;;;28.70;97.20;;;;;;4967839;28;19937;-71
2021/06/20 16:37:01;;;;;;;;;;;28.30;97.50;;;;;;4969885;28;19937;-71
2021/06/20 16:39:29;;;;;;;;;;;28.60;97.50;;;;;;4966152;28;20030;-71
2021/06/20 16:41:56;;;;;;;;;;;28.60;97.40;;;;;;4971087;28;19937;-71
2021/06/20 16:44:23;;;;;;;;;;;28.60;97.10;;;;;;4973076;28;19949;-71
2021/06/20 16:46:50;;;;;;;;;;;28.60;97.00;;;;;;4971576;28;19929;-72
2021/06/20 16:49:17;;;;;;;;;;;28.80;96.40;;;;;;4971905;28;20418;-71
2021/06/20 16:51:44;;;;;;;;;;;28.50;96.70;;;;;;4970775;28;19926;-72
2021/06/20 16:54:10;;;;;;;;;;;28.30;97.00;;;;;;4972223;28;19926;-71
2021/06/20 16:56:39;;;;;;;;;;;28.20;96.90;;;;;;4973199;28;20399;-71
2021/06/20 16:59:06;;;;;;;;;;;28.10;97.60;;;;;;4970182;28;20064;-71
2021/06/20 17:01:33;;;;;;;;;;;28.20;97.90;;;;;;4969587;28;19926;-72
2021/06/20 17:04:00;;;;;;;;;;;28.10;97.90;;;;;;4952930;28;20457;-72
2021/06/20 17:06:26;;;;;;;;;;;28.20;98.40;;;;;;4972679;28;19969;-71
2021/06/20 17:08:53;;;;;;;;;;;28.20;97.70;;;;;;4970662;28;19926;-72
2021/06/20 17:11:20;;;;;;;;;;;28.00;98.30;;;;;;4973774;28;19973;-72
2021/06/20 17:13:48;;;;;;;;;;;28.40;99.00;;;;;;4974994;28;19926;-72
2021/06/20 17:16:15;;;;;;;;;;;28.40;98.40;;;;;;4973343;28;20041;-71
2021/06/20 17:18:42;;;;;;;;;;;28.30;99.10;;;;;;4953355;28;19948;-71
2021/06/20 17:21:09;;;;;;;;;;;28.40;99.70;;;;;;4951617;28;19930;-71
2021/06/20 17:23:36;;;;;;;;;;;28.40;99.90;;;;;;4972124;28;20419;-71
2021/06/20 17:26:03;;;;;;;;;;;28.20;99.60;;;;;;4973643;28;19953;-71
2021/06/20 17:28:30;;;;;;;;;;;28.30;99.90;;;;;;4957035;28;19961;-70
2021/06/20 17:30:58;;;;;;;;;;;28.20;99.90;;;;;;4971410;28;19930;-71
2021/06/20 17:33:25;;;;;;;;;;;28.10;99.90;;;;;;4972486;28;20032;-72
2021/06/20 17:35:51;;;;;;;;;;;28.00;99.90;;;;;;4955172;28;19929;-72
2021/06/20 17:38:19;;;;;;;;;;;27.70;99.90;;;;;;4961301;28;19926;-71
2021/06/20 17:40:49;;;;;;;;;;;27.70;99.90;;;;;;4977912;28;19965;-71
2021/06/20 17:43:16;;;;;;;;;;;27.50;99.90;;;;;;4972884;28;20000;-71
2021/06/20 17:45:43;;;;;;;;;;;27.50;99.90;;;;;;4970852;28;19952;-71
2021/06/20 17:48:11;;;;;;;;;;;27.30;99.90;;;;;;4971107;28;20004;-71
2021/06/20 17:50:38;;;;;;;;;;;27.30;99.90;;;;;;4970481;28;20004;-71
2021/06/20 17:53:05;;;;;;;;;;;27.30;99.90;;;;;;4971120;28;20017;-71
2021/06/20 17:55:32;;;;;;;;;;;27.30;99.90;;;;;;4972377;28;20405;-71
2021/06/20 17:57:59;;;;;;;;;;;27.20;99.90;;;;;;4970549;28;20369;-71
2021/06/20 18:00:26;;;;;;;;;;;27.10;99.90;;;;;;4971154;28;19926;-71
2021/06/20 18:02:53;;;;;;;;;;;27.10;99.90;;;;;;4970672;28;20013;-71
2021/06/20 18:05:22;;;;;;;;;;;27.00;99.90;;;;;;4953593;28;19934;-72
2021/06/20 18:07:49;;;;;;;;;;;27.10;99.90;;;;;;4971025;28;20022;-71
2021/06/20 18:10:17;;;;;;;;;;;27.20;99.90;;;;;;4970976;28;19965;-71
2021/06/20 18:12:44;;;;;;;;;;;27.40;99.90;;;;;;4969565;28;19933;-71
2021/06/20 18:15:12;;;;;;;;;;;27.20;99.90;;;;;;4972095;28;20363;-71
2021/06/20 18:17:40;;;;;;;;;;;27.20;99.90;;;;;;4970880;28;19930;-71
2021/06/20 18:20:07;;;;;;;;;;;27.30;99.90;;;;;;4970874;28;20017;-71
2021/06/20 18:22:35;;;;;;;;;;;27.00;99.90;;;;;;4971503;28;19957;-71
2021/06/20 18:25:02;;;;;;;;;;;26.80;99.90;;;;;;4971385;28;19933;-71
2021/06/20 18:27:29;;;;;;;;;;;26.80;99.90;;;;;;4971677;28;19972;-72
2021/06/20 18:29:56;;;;;;;;;;;26.70;99.90;;;;;;4970051;28;19934;-72
2021/06/20 18:32:23;;;;;;;;;;;26.70;99.90;;;;;;4970090;28;20465;-71
2021/06/20 18:34:50;;;;;;;;;;;26.80;99.90;;;;;;4971531;28;19962;-71
2021/06/20 18:37:16;;;;;;;;;;;26.90;99.90;;;;;;4968330;28;19956;-73
2021/06/20 18:39:44;;;;;;;;;;;26.90;99.90;;;;;;4965058;28;20010;-74
2021/06/20 18:42:11;;;;;;;;;;;26.70;99.90;;;;;;4964796;28;20367;-72
2021/06/20 18:44:38;;;;;;;;;;;26.60;99.90;;;;;;4964716;28;20584;-71
2021/06/20 18:47:05;;;;;;;;;;;26.50;99.90;;;;;;4952931;28;20398;-73
2021/06/20 18:49:32;;;;;;;;;;;26.40;99.90;;;;;;4965638;28;19930;-72
2021/06/20 18:51:59;;;;;;;;;;;26.40;99.90;;;;;;4967063;28;19938;-71
2021/06/20 18:54:26;;;;;;;;;;;26.30;99.90;;;;;;4961255;28;20044;-73
2021/06/20 18:56:54;;;;;;;;;;;26.30;99.90;;;;;;4962124;28;19930;-72
2021/06/20 18:59:21;;;;;;;;;;;26.20;99.90;;;;;;4970039;28;19996;-72
2021/06/20 19:01:48;;;;;;;;;;;26.20;99.90;;;;;;4965258;28;19974;-72
2021/06/20 19:04:15;;;;;;;;;;;26.30;99.90;;;;;;4962010;28;20430;-73
2021/06/20 19:06:41;;;;;;;;;;;26.30;99.90;;;;;;4952478;28;19927;-71
2021/06/20 19:09:08;;;;;;;;;;;26.40;99.90;;;;;;4946101;28;19958;-72